Weather at Tokyo Haneda International Airport

Public forecast

Using degrees Celsius for public forecast. Weather courtesy of forecast.io.

Current aviation weather report (METAR) for Tokyo Haneda International Airport

Retrieved 2021/02/26 01:30 UTC (1 hour ago):

RJTT 260130Z 35008KT 9999 FEW030 BKN080 11/M02 Q1020 NOSIG

Aviation forecast (TAF) for Tokyo Haneda International Airport

Forecast is more than 6 hours old.

Retrieved 2021/02/25 18:28 UTC (8 hours ago):

TAF RJTT 251705Z 2518/2700 34010KT 9999 FEW030 BECMG 2612/2615 35022KT